Time;durP1;ratioP1;P1;durP2;ratioP2;P2;SDS_P1;SDS_P2;PMS_P1;PMS_P2;Temp;Humidity;BMP_temperature;BMP_pressure;BME280_temperature;BME280_humidity;BME280_pressure;Samples;Min_cycle;Max_cycle;Signal;HPM_P1;HPM_P2
2022/04/23 00:00:39;;;;;;;30.15;25.05;;;;;;;9.17;66.45508;93892.22;;;;
2022/04/23 00:01:39;;;;;;;30.15;25.05;;;;;;;9.17;66.45508;93892.22;;;;
2022/04/23 00:02:42;;;;;;;30.15;25.05;;;;;;;9.17;66.45508;93892.22;;;;
2022/04/23 00:03:42;;;;;;;30.15;25.05;;;;;;;9.17;66.45508;93892.22;;;;
2022/04/23 00:04:43;;;;;;;30.15;25.05;;;;;;;9.17;66.45508;93892.22;;;;
2022/04/23 00:05:44;;;;;;;30.15;25.05;;;;;;;9.17;66.45508;93892.22;;;;
2022/04/23 00:06:45;;;;;;;30.15;25.05;;;;;;;9.17;66.45508;93892.22;;;;
2022/04/23 00:07:45;;;;;;;30.15;25.05;;;;;;;9.17;66.45508;93892.22;;;;
2022/04/23 00:08:46;;;;;;;30.15;25.05;;;;;;;9.17;66.45508;93892.22;;;;
2022/04/23 00:09:46;;;;;;;30.15;25.05;;;;;;;9.17;66.45508;93892.22;;;;
2022/04/23 00:10:47;;;;;;;30.15;25.05;;;;;;;9.17;66.45508;93892.22;;;;
2022/04/23 00:11:47;;;;;;;34.4;26.95;;;;;;;9.09;66.64648;93889.08;;;;
2022/04/23 00:12:48;;;;;;;34.4;26.95;;;;;;;9.09;66.64648;93889.08;;;;
2022/04/23 00:13:49;;;;;;;34.4;26.95;;;;;;;9.09;66.64648;93889.08;;;;
2022/04/23 00:14:49;;;;;;;34.4;26.95;;;;;;;9.09;66.64648;93889.08;;;;
2022/04/23 00:15:50;;;;;;;34.4;26.95;;;;;;;9.09;66.64648;93889.08;;;;
2022/04/23 00:16:50;;;;;;;34.4;26.95;;;;;;;9.09;66.64648;93889.08;;;;
2022/04/23 00:17:51;;;;;;;34.4;26.95;;;;;;;9.09;66.64648;93889.08;;;;
2022/04/23 00:18:52;;;;;;;34.4;26.95;;;;;;;9.09;66.64648;93889.08;;;;
2022/04/23 00:19:53;;;;;;;34.4;26.95;;;;;;;9.09;66.64648;93889.08;;;;
2022/04/23 00:20:55;;;;;;;34.4;26.95;;;;;;;9.09;66.64648;93889.08;;;;
2022/04/23 00:21:56;;;;;;;37.05;28.6;;;;;;;8.98;66.99219;93887.39;;;;
2022/04/23 00:22:57;;;;;;;37.05;28.6;;;;;;;8.98;66.99219;93887.39;;;;
2022/04/23 00:23:57;;;;;;;37.05;28.6;;;;;;;8.98;66.99219;93887.39;;;;
2022/04/23 00:24:58;;;;;;;37.05;28.6;;;;;;;8.98;66.99219;93887.39;;;;
2022/04/23 00:25:59;;;;;;;37.05;28.6;;;;;;;8.98;66.99219;93887.39;;;;
2022/04/23 00:26:59;;;;;;;37.05;28.6;;;;;;;8.98;66.99219;93887.39;;;;
2022/04/23 00:28:00;;;;;;;37.05;28.6;;;;;;;8.98;66.99219;93887.39;;;;
2022/04/23 00:29:00;;;;;;;37.05;28.6;;;;;;;8.98;66.99219;93887.39;;;;
2022/04/23 00:30:01;;;;;;;37.05;28.6;;;;;;;8.98;66.99219;93887.39;;;;
2022/04/23 00:31:02;;;;;;;37.05;28.6;;;;;;;8.98;66.99219;93887.39;;;;
2022/04/23 00:32:02;;;;;;;37.05;28.6;;;;;;;8.98;66.99219;93887.39;;;;
2022/04/23 00:33:03;;;;;;;35.7;27.15;;;;;;;8.86;67.53906;93883.68;;;;
2022/04/23 00:34:04;;;;;;;35.7;27.15;;;;;;;8.86;67.53906;93883.68;;;;
2022/04/23 00:35:06;;;;;;;35.7;27.15;;;;;;;8.86;67.53906;93883.68;;;;
2022/04/23 00:36:09;;;;;;;35.7;27.15;;;;;;;8.86;67.53906;93883.68;;;;
2022/04/23 00:37:10;;;;;;;35.7;27.15;;;;;;;8.86;67.53906;93883.68;;;;
2022/04/23 00:38:11;;;;;;;35.7;27.15;;;;;;;8.86;67.53906;93883.68;;;;
2022/04/23 00:39:11;;;;;;;35.7;27.15;;;;;;;8.86;67.53906;93883.68;;;;
2022/04/23 00:40:16;;;;;;;35.7;27.15;;;;;;;8.86;67.53906;93883.68;;;;
2022/04/23 00:41:45;;;;;;;35.7;27.15;;;;;;;8.86;67.53906;93883.68;;;;
2022/04/23 00:42:45;;;;;;;35.7;27.15;;;;;;;8.86;67.53906;93883.68;;;;
2022/04/23 00:43:47;;;;;;;35.25;27.2;;;;;;;8.74;68.0332;93888.45;;;;
2022/04/23 00:44:48;;;;;;;35.25;27.2;;;;;;;8.74;68.0332;93888.45;;;;
2022/04/23 00:45:48;;;;;;;35.25;27.2;;;;;;;8.74;68.0332;93888.45;;;;
2022/04/23 00:46:49;;;;;;;35.25;27.2;;;;;;;8.74;68.0332;93888.45;;;;
2022/04/23 00:47:49;;;;;;;35.25;27.2;;;;;;;8.74;68.0332;93888.45;;;;
2022/04/23 00:48:51;;;;;;;35.25;27.2;;;;;;;8.74;68.0332;93888.45;;;;
2022/04/23 00:49:52;;;;;;;35.25;27.2;;;;;;;8.74;68.0332;93888.45;;;;
2022/04/23 00:50:53;;;;;;;35.25;27.2;;;;;;;8.74;68.0332;93888.45;;;;
2022/04/23 00:51:56;;;;;;;35.25;27.2;;;;;;;8.74;68.0332;93888.45;;;;
2022/04/23 00:52:58;;;;;;;35.25;27.2;;;;;;;8.74;68.0332;93888.45;;;;
2022/04/23 00:54:04;;;;;;;34.55;26.6;;;;;;;8.64;68.40234;93889.18;;;;
2022/04/23 00:55:06;;;;;;;34.55;26.6;;;;;;;8.64;68.40234;93889.18;;;;
2022/04/23 00:56:08;;;;;;;34.55;26.6;;;;;;;8.64;68.40234;93889.18;;;;
2022/04/23 00:57:09;;;;;;;34.55;26.6;;;;;;;8.64;68.40234;93889.18;;;;
2022/04/23 00:58:09;;;;;;;34.55;26.6;;;;;;;8.64;68.40234;93889.18;;;;
2022/04/23 00:59:10;;;;;;;34.55;26.6;;;;;;;8.64;68.40234;93889.18;;;;
2022/04/23 01:00:12;;;;;;;34.55;26.6;;;;;;;8.64;68.40234;93889.18;;;;
2022/04/23 01:01:15;;;;;;;34.55;26.6;;;;;;;8.64;68.40234;93889.18;;;;
2022/04/23 01:02:15;;;;;;;34.55;26.6;;;;;;;8.64;68.40234;93889.18;;;;
2022/04/23 01:03:15;;;;;;;34.55;26.6;;;;;;;8.64;68.40234;93889.18;;;;
2022/04/23 01:04:16;;;;;;;34.55;26.6;;;;;;;8.64;68.40234;93889.18;;;;
2022/04/23 01:05:17;;;;;;;30.1;23.65;;;;;;;8.55;68.55957;93888.97;;;;
2022/04/23 01:06:17;;;;;;;30.1;23.65;;;;;;;8.55;68.55957;93888.97;;;;
2022/04/23 01:07:18;;;;;;;30.1;23.65;;;;;;;8.55;68.55957;93888.97;;;;
2022/04/23 01:08:19;;;;;;;30.1;23.65;;;;;;;8.55;68.55957;93888.97;;;;
2022/04/23 01:09:20;;;;;;;30.1;23.65;;;;;;;8.55;68.55957;93888.97;;;;
2022/04/23 01:10:20;;;;;;;30.1;23.65;;;;;;;8.55;68.55957;93888.97;;;;
2022/04/23 01:11:21;;;;;;;30.1;23.65;;;;;;;8.55;68.55957;93888.97;;;;
2022/04/23 01:12:22;;;;;;;30.1;23.65;;;;;;;8.55;68.55957;93888.97;;;;
2022/04/23 01:13:25;;;;;;;30.1;23.65;;;;;;;8.55;68.55957;93888.97;;;;
2022/04/23 01:14:26;;;;;;;30.1;23.65;;;;;;;8.55;68.55957;93888.97;;;;
2022/04/23 01:15:27;;;;;;;30.1;23.65;;;;;;;8.55;68.55957;93888.97;;;;
2022/04/23 01:16:27;;;;;;;30.1;23.65;;;;;;;8.55;68.55957;93888.97;;;;
2022/04/23 01:17:28;;;;;;;30.1;23.65;;;;;;;8.55;68.55957;93888.97;;;;
2022/04/23 01:18:28;;;;;;;30.1;23.65;;;;;;;8.55;68.55957;93888.97;;;;
2022/04/23 01:19:29;;;;;;;30.1;23.65;;;;;;;8.55;68.55957;93888.97;;;;
2022/04/23 01:20:30;;;;;;;30.1;23.65;;;;;;;8.55;68.55957;93888.97;;;;
2022/04/23 01:21:30;;;;;;;30.1;23.65;;;;;;;8.55;68.55957;93888.97;;;;
2022/04/23 01:22:31;;;;;;;30.1;23.65;;;;;;;8.55;68.55957;93888.97;;;;
2022/04/23 01:23:32;;;;;;;30.1;23.65;;;;;;;8.55;68.55957;93888.97;;;;
2022/04/23 01:24:34;;;;;;;30.1;23.65;;;;;;;8.55;68.55957;93888.97;;;;
2022/04/23 01:25:35;;;;;;;30.1;23.65;;;;;;;8.55;68.55957;93888.97;;;;
2022/04/23 01:26:35;;;;;;;31.75;24.5;;;;;;;8.4;69.20703;93896.78;;;;
2022/04/23 01:27:36;;;;;;;31.75;24.5;;;;;;;8.4;69.20703;93896.78;;;;
2022/04/23 01:28:39;;;;;;;31.75;24.5;;;;;;;8.4;69.20703;93896.78;;;;
2022/04/23 01:29:40;;;;;;;31.75;24.5;;;;;;;8.4;69.20703;93896.78;;;;
2022/04/23 01:30:40;;;;;;;31.75;24.5;;;;;;;8.4;69.20703;93896.78;;;;
2022/04/23 01:31:41;;;;;;;31.75;24.5;;;;;;;8.4;69.20703;93896.78;;;;
2022/04/23 01:32:42;;;;;;;31.75;24.5;;;;;;;8.4;69.20703;93896.78;;;;
2022/04/23 01:33:42;;;;;;;31.75;24.5;;;;;;;8.4;69.20703;93896.78;;;;
2022/04/23 01:34:43;;;;;;;31.75;24.5;;;;;;;8.4;69.20703;93896.78;;;;
2022/04/23 01:35:43;;;;;;;31.75;24.5;;;;;;;8.4;69.20703;93896.78;;;;
2022/04/23 01:36:44;;;;;;;31.75;24.5;;;;;;;8.4;69.20703;93896.78;;;;
2022/04/23 01:37:45;;;;;;;32.60001;25.55;;;;;;;8.38;69.35352;93901.2;;;;
2022/04/23 01:38:45;;;;;;;32.60001;25.55;;;;;;;8.38;69.35352;93901.2;;;;
2022/04/23 01:39:47;;;;;;;32.60001;25.55;;;;;;;8.38;69.35352;93901.2;;;;
2022/04/23 01:40:48;;;;;;;32.60001;25.55;;;;;;;8.38;69.35352;93901.2;;;;
2022/04/23 01:41:49;;;;;;;32.60001;25.55;;;;;;;8.38;69.35352;93901.2;;;;
2022/04/23 01:42:49;;;;;;;32.60001;25.55;;;;;;;8.38;69.35352;93901.2;;;;
2022/04/23 01:43:50;;;;;;;32.60001;25.55;;;;;;;8.38;69.35352;93901.2;;;;
2022/04/23 01:44:50;;;;;;;32.60001;25.55;;;;;;;8.38;69.35352;93901.2;;;;
2022/04/23 01:45:53;;;;;;;32.60001;25.55;;;;;;;8.38;69.35352;93901.2;;;;
2022/04/23 01:46:53;;;;;;;32.60001;25.55;;;;;;;8.38;69.35352;93901.2;;;;
2022/04/23 01:47:53;;;;;;;32.60001;25.55;;;;;;;8.38;69.35352;93901.2;;;;
2022/04/23 01:48:54;;;;;;;32.60001;25.55;;;;;;;8.38;69.35352;93901.2;;;;
2022/04/23 01:49:54;;;;;;;32.60001;25.55;;;;;;;8.38;69.35352;93901.2;;;;
2022/04/23 01:50:55;;;;;;;32.60001;25.55;;;;;;;8.38;69.35352;93901.2;;;;
2022/04/23 01:51:56;;;;;;;32.60001;25.55;;;;;;;8.38;69.35352;93901.2;;;;
2022/04/23 01:52:56;;;;;;;32.60001;25.55;;;;;;;8.38;69.35352;93901.2;;;;
2022/04/23 01:53:57;;;;;;;32.60001;25.55;;;;;;;8.38;69.35352;93901.2;;;;
2022/04/23 01:54:57;;;;;;;32.60001;25.55;;;;;;;8.38;69.35352;93901.2;;;;
2022/04/23 01:55:58;;;;;;;32.60001;25.55;;;;;;;8.38;69.35352;93901.2;;;;
2022/04/23 01:56:59;;;;;;;32.60001;25.55;;;;;;;8.38;69.35352;93901.2;;;;
2022/04/23 01:58:00;;;;;;;32.60001;25.55;;;;;;;8.38;69.35352;93901.2;;;;
2022/04/23 01:59:00;;;;;;;31.6;25.25;;;;;;;8.25;69.65137;93904.85;;;;
2022/04/23 02:00:01;;;;;;;31.6;25.25;;;;;;;8.25;69.65137;93904.85;;;;
2022/04/23 02:01:04;;;;;;;31.6;25.25;;;;;;;8.25;69.65137;93904.85;;;;
2022/04/23 02:02:04;;;;;;;31.6;25.25;;;;;;;8.25;69.65137;93904.85;;;;
2022/04/23 02:03:06;;;;;;;31.6;25.25;;;;;;;8.25;69.65137;93904.85;;;;
2022/04/23 02:04:07;;;;;;;31.6;25.25;;;;;;;8.25;69.65137;93904.85;;;;
2022/04/23 02:05:07;;;;;;;31.6;25.25;;;;;;;8.25;69.65137;93904.85;;;;
2022/04/23 02:06:10;;;;;;;31.6;25.25;;;;;;;8.25;69.65137;93904.85;;;;
2022/04/23 02:07:10;;;;;;;31.6;25.25;;;;;;;8.25;69.65137;93904.85;;;;
2022/04/23 02:08:10;;;;;;;31.6;25.25;;;;;;;8.25;69.65137;93904.85;;;;
2022/04/23 02:09:14;;;;;;;28.15;21.75;;;;;;;8.16;70.40625;93904.49;;;;
2022/04/23 02:10:15;;;;;;;28.15;21.75;;;;;;;8.16;70.40625;93904.49;;;;
2022/04/23 02:11:16;;;;;;;28.15;21.75;;;;;;;8.16;70.40625;93904.49;;;;
2022/04/23 02:12:16;;;;;;;28.15;21.75;;;;;;;8.16;70.40625;93904.49;;;;
2022/04/23 02:13:17;;;;;;;28.15;21.75;;;;;;;8.16;70.40625;93904.49;;;;
2022/04/23 02:14:17;;;;;;;28.15;21.75;;;;;;;8.16;70.40625;93904.49;;;;
2022/04/23 02:15:18;;;;;;;28.15;21.75;;;;;;;8.16;70.40625;93904.49;;;;
2022/04/23 02:16:18;;;;;;;28.15;21.75;;;;;;;8.16;70.40625;93904.49;;;;
2022/04/23 02:17:19;;;;;;;28.15;21.75;;;;;;;8.16;70.40625;93904.49;;;;
2022/04/23 02:18:21;;;;;;;28.15;21.75;;;;;;;8.16;70.40625;93904.49;;;;
2022/04/23 02:19:22;;;;;;;28.15;21.75;;;;;;;8.16;70.40625;93904.49;;;;
2022/04/23 02:20:23;;;;;;;27.55;20.75;;;;;;;8.07;71.07227;93887.6;;;;
2022/04/23 02:21:23;;;;;;;27.55;20.75;;;;;;;8.07;71.07227;93887.6;;;;
2022/04/23 02:22:24;;;;;;;27.55;20.75;;;;;;;8.07;71.07227;93887.6;;;;
2022/04/23 02:23:24;;;;;;;27.55;20.75;;;;;;;8.07;71.07227;93887.6;;;;
2022/04/23 02:24:25;;;;;;;27.55;20.75;;;;;;;8.07;71.07227;93887.6;;;;
2022/04/23 02:25:25;;;;;;;27.55;20.75;;;;;;;8.07;71.07227;93887.6;;;;
2022/04/23 02:26:25;;;;;;;27.55;20.75;;;;;;;8.07;71.07227;93887.6;;;;
2022/04/23 02:27:27;;;;;;;27.55;20.75;;;;;;;8.07;71.07227;93887.6;;;;
2022/04/23 02:28:28;;;;;;;27.55;20.75;;;;;;;8.07;71.07227;93887.6;;;;
2022/04/23 02:29:28;;;;;;;27.55;20.75;;;;;;;8.07;71.07227;93887.6;;;;
2022/04/23 02:30:29;;;;;;;27.55;20.75;;;;;;;8.07;71.07227;93887.6;;;;
2022/04/23 02:31:30;;;;;;;26.2;20.55;;;;;;;7.97;71.65137;93897.44;;;;
2022/04/23 02:32:31;;;;;;;26.2;20.55;;;;;;;7.97;71.65137;93897.44;;;;
2022/04/23 02:33:31;;;;;;;26.2;20.55;;;;;;;7.97;71.65137;93897.44;;;;
2022/04/23 02:34:32;;;;;;;26.2;20.55;;;;;;;7.97;71.65137;93897.44;;;;
2022/04/23 02:35:34;;;;;;;26.2;20.55;;;;;;;7.97;71.65137;93897.44;;;;
2022/04/23 02:36:36;;;;;;;26.2;20.55;;;;;;;7.97;71.65137;93897.44;;;;
2022/04/23 02:37:36;;;;;;;26.2;20.55;;;;;;;7.97;71.65137;93897.44;;;;
2022/04/23 02:38:39;;;;;;;26.2;20.55;;;;;;;7.97;71.65137;93897.44;;;;
2022/04/23 02:39:39;;;;;;;26.2;20.55;;;;;;;7.97;71.65137;93897.44;;;;
2022/04/23 02:40:40;;;;;;;26.2;20.55;;;;;;;7.97;71.65137;93897.44;;;;
2022/04/23 02:41:40;;;;;;;28.4;21.95;;;;;;;7.88;71.80664;93888.22;;;;
2022/04/23 02:42:41;;;;;;;28.4;21.95;;;;;;;7.88;71.80664;93888.22;;;;
2022/04/23 02:43:42;;;;;;;28.4;21.95;;;;;;;7.88;71.80664;93888.22;;;;
2022/04/23 02:44:45;;;;;;;28.4;21.95;;;;;;;7.88;71.80664;93888.22;;;;
2022/04/23 02:45:45;;;;;;;28.4;21.95;;;;;;;7.88;71.80664;93888.22;;;;
2022/04/23 02:46:46;;;;;;;28.4;21.95;;;;;;;7.88;71.80664;93888.22;;;;
2022/04/23 02:47:46;;;;;;;28.4;21.95;;;;;;;7.88;71.80664;93888.22;;;;
2022/04/23 02:48:48;;;;;;;28.4;21.95;;;;;;;7.88;71.80664;93888.22;;;;
2022/04/23 02:49:49;;;;;;;28.4;21.95;;;;;;;7.88;71.80664;93888.22;;;;
2022/04/23 02:50:49;;;;;;;28.4;21.95;;;;;;;7.88;71.80664;93888.22;;;;
2022/04/23 02:51:51;;;;;;;28.4;21.95;;;;;;;7.88;71.80664;93888.22;;;;
2022/04/23 02:52:52;;;;;;;27.95;21.35;;;;;;;7.85;71.8125;93898.92;;;;
2022/04/23 02:53:53;;;;;;;27.95;21.35;;;;;;;7.85;71.8125;93898.92;;;;
2022/04/23 02:54:54;;;;;;;27.95;21.35;;;;;;;7.85;71.8125;93898.92;;;;
2022/04/23 02:55:56;;;;;;;27.95;21.35;;;;;;;7.85;71.8125;93898.92;;;;
2022/04/23 02:56:57;;;;;;;27.95;21.35;;;;;;;7.85;71.8125;93898.92;;;;
2022/04/23 02:57:58;;;;;;;27.95;21.35;;;;;;;7.85;71.8125;93898.92;;;;
2022/04/23 02:59:02;;;;;;;27.95;21.35;;;;;;;7.85;71.8125;93898.92;;;;
2022/04/23 03:00:04;;;;;;;27.95;21.35;;;;;;;7.85;71.8125;93898.92;;;;
2022/04/23 03:01:10;;;;;;;27.95;21.35;;;;;;;7.85;71.8125;93898.92;;;;
2022/04/23 03:02:10;;;;;;;27.95;21.35;;;;;;;7.85;71.8125;93898.92;;;;
2022/04/23 03:03:10;;;;;;;27.1;20.55;;;;;;;7.8;72.08105;93886.78;;;;
2022/04/23 03:04:12;;;;;;;27.1;20.55;;;;;;;7.8;72.08105;93886.78;;;;
2022/04/23 03:05:14;;;;;;;27.1;20.55;;;;;;;7.8;72.08105;93886.78;;;;
2022/04/23 03:06:17;;;;;;;27.1;20.55;;;;;;;7.8;72.08105;93886.78;;;;
2022/04/23 03:07:18;;;;;;;27.1;20.55;;;;;;;7.8;72.08105;93886.78;;;;
2022/04/23 03:08:19;;;;;;;27.1;20.55;;;;;;;7.8;72.08105;93886.78;;;;
2022/04/23 03:09:20;;;;;;;27.1;20.55;;;;;;;7.8;72.08105;93886.78;;;;
2022/04/23 03:10:21;;;;;;;27.1;20.55;;;;;;;7.8;72.08105;93886.78;;;;
2022/04/23 03:11:21;;;;;;;27.1;20.55;;;;;;;7.8;72.08105;93886.78;;;;
2022/04/23 03:12:22;;;;;;;27.1;20.55;;;;;;;7.8;72.08105;93886.78;;;;
2022/04/23 03:13:23;;;;;;;29.05;21.25;;;;;;;7.82;72.30762;93892.31;;;;
2022/04/23 03:14:24;;;;;;;29.05;21.25;;;;;;;7.82;72.30762;93892.31;;;;
2022/04/23 03:15:25;;;;;;;29.05;21.25;;;;;;;7.82;72.30762;93892.31;;;;
2022/04/23 03:16:27;;;;;;;29.05;21.25;;;;;;;7.82;72.30762;93892.31;;;;
2022/04/23 03:17:27;;;;;;;29.05;21.25;;;;;;;7.82;72.30762;93892.31;;;;
2022/04/23 03:18:28;;;;;;;29.05;21.25;;;;;;;7.82;72.30762;93892.31;;;;
2022/04/23 03:19:28;;;;;;;29.05;21.25;;;;;;;7.82;72.30762;93892.31;;;;
2022/04/23 03:20:29;;;;;;;29.05;21.25;;;;;;;7.82;72.30762;93892.31;;;;
2022/04/23 03:21:29;;;;;;;29.05;21.25;;;;;;;7.82;72.30762;93892.31;;;;
2022/04/23 03:22:30;;;;;;;29.05;21.25;;;;;;;7.82;72.30762;93892.31;;;;
2022/04/23 03:23:31;;;;;;;29.05;21.25;;;;;;;7.82;72.30762;93892.31;;;;
2022/04/23 03:24:31;;;;;;;29.1;22.15;;;;;;;7.78;72.38672;93892.53;;;;
2022/04/23 03:25:32;;;;;;;29.1;22.15;;;;;;;7.78;72.38672;93892.53;;;;
2022/04/23 03:26:33;;;;;;;29.1;22.15;;;;;;;7.78;72.38672;93892.53;;;;
2022/04/23 03:27:34;;;;;;;29.1;22.15;;;;;;;7.78;72.38672;93892.53;;;;
2022/04/23 03:28:35;;;;;;;29.1;22.15;;;;;;;7.78;72.38672;93892.53;;;;
2022/04/23 03:29:35;;;;;;;29.1;22.15;;;;;;;7.78;72.38672;93892.53;;;;
2022/04/23 03:30:36;;;;;;;29.1;22.15;;;;;;;7.78;72.38672;93892.53;;;;
2022/04/23 03:31:37;;;;;;;29.1;22.15;;;;;;;7.78;72.38672;93892.53;;;;
2022/04/23 03:32:37;;;;;;;29.1;22.15;;;;;;;7.78;72.38672;93892.53;;;;
2022/04/23 03:33:38;;;;;;;29.1;22.15;;;;;;;7.78;72.38672;93892.53;;;;
2022/04/23 03:34:39;;;;;;;29.1;22.15;;;;;;;7.78;72.38672;93892.53;;;;
2022/04/23 03:35:39;;;;;;;30.15;22.4;;;;;;;7.76;72.51074;93896.81;;;;
2022/04/23 03:36:40;;;;;;;30.15;22.4;;;;;;;7.76;72.51074;93896.81;;;;
2022/04/23 03:37:40;;;;;;;30.15;22.4;;;;;;;7.76;72.51074;93896.81;;;;
2022/04/23 03:38:42;;;;;;;30.15;22.4;;;;;;;7.76;72.51074;93896.81;;;;
2022/04/23 03:39:42;;;;;;;30.15;22.4;;;;;;;7.76;72.51074;93896.81;;;;
2022/04/23 03:40:43;;;;;;;30.15;22.4;;;;;;;7.76;72.51074;93896.81;;;;
2022/04/23 03:41:44;;;;;;;30.15;22.4;;;;;;;7.76;72.51074;93896.81;;;;
2022/04/23 03:42:45;;;;;;;30.15;22.4;;;;;;;7.76;72.51074;93896.81;;;;
2022/04/23 03:43:45;;;;;;;30.15;22.4;;;;;;;7.76;72.51074;93896.81;;;;
2022/04/23 03:44:46;;;;;;;30.15;22.4;;;;;;;7.76;72.51074;93896.81;;;;
2022/04/23 03:45:47;;;;;;;32;23.4;;;;;;;7.73;73.50586;93898.67;;;;
2022/04/23 03:46:47;;;;;;;32;23.4;;;;;;;7.73;73.50586;93898.67;;;;
2022/04/23 03:47:47;;;;;;;32;23.4;;;;;;;7.73;73.50586;93898.67;;;;
2022/04/23 03:48:48;;;;;;;32;23.4;;;;;;;7.73;73.50586;93898.67;;;;
2022/04/23 03:49:49;;;;;;;32;23.4;;;;;;;7.73;73.50586;93898.67;;;;
2022/04/23 03:50:49;;;;;;;32;23.4;;;;;;;7.73;73.50586;93898.67;;;;
2022/04/23 03:51:50;;;;;;;32;23.4;;;;;;;7.73;73.50586;93898.67;;;;
2022/04/23 03:52:50;;;;;;;32;23.4;;;;;;;7.73;73.50586;93898.67;;;;
2022/04/23 03:53:51;;;;;;;32;23.4;;;;;;;7.73;73.50586;93898.67;;;;
2022/04/23 03:54:51;;;;;;;32;23.4;;;;;;;7.73;73.50586;93898.67;;;;
2022/04/23 03:55:52;;;;;;;32;23.4;;;;;;;7.73;73.50586;93898.67;;;;
2022/04/23 03:56:52;;;;;;;27.35;21.65;;;;;;;7.66;73.4082;93893.22;;;;
2022/04/23 03:57:54;;;;;;;27.35;21.65;;;;;;;7.66;73.4082;93893.22;;;;
2022/04/23 03:58:55;;;;;;;27.35;21.65;;;;;;;7.66;73.4082;93893.22;;;;
2022/04/23 03:59:55;;;;;;;27.35;21.65;;;;;;;7.66;73.4082;93893.22;;;;
2022/04/23 04:00:56;;;;;;;27.35;21.65;;;;;;;7.66;73.4082;93893.22;;;;
2022/04/23 04:01:56;;;;;;;27.35;21.65;;;;;;;7.66;73.4082;93893.22;;;;
2022/04/23 04:02:57;;;;;;;27.35;21.65;;;;;;;7.66;73.4082;93893.22;;;;
2022/04/23 04:03:57;;;;;;;27.35;21.65;;;;;;;7.66;73.4082;93893.22;;;;
2022/04/23 04:04:58;;;;;;;27.35;21.65;;;;;;;7.66;73.4082;93893.22;;;;
2022/04/23 04:05:58;;;;;;;27.35;21.65;;;;;;;7.66;73.4082;93893.22;;;;
2022/04/23 04:06:59;;;;;;;27.35;21.65;;;;;;;7.66;73.4082;93893.22;;;;
2022/04/23 04:08:00;;;;;;;27.35;21.65;;;;;;;7.66;73.4082;93893.22;;;;
2022/04/23 04:09:00;;;;;;;27.35;21.65;;;;;;;7.66;73.4082;93893.22;;;;
2022/04/23 04:10:01;;;;;;;27.35;21.65;;;;;;;7.66;73.4082;93893.22;;;;
2022/04/23 04:11:02;;;;;;;27.35;21.65;;;;;;;7.66;73.4082;93893.22;;;;
2022/04/23 04:12:03;;;;;;;27.35;21.65;;;;;;;7.66;73.4082;93893.22;;;;
2022/04/23 04:13:04;;;;;;;27.35;21.65;;;;;;;7.66;73.4082;93893.22;;;;
2022/04/23 04:14:05;;;;;;;27.35;21.65;;;;;;;7.66;73.4082;93893.22;;;;
2022/04/23 04:15:05;;;;;;;27.35;21.65;;;;;;;7.66;73.4082;93893.22;;;;
2022/04/23 04:16:09;;;;;;;27.35;21.65;;;;;;;7.66;73.4082;93893.22;;;;
2022/04/23 04:17:09;;;;;;;27.35;21.65;;;;;;;7.66;73.4082;93893.22;;;;
2022/04/23 04:18:11;;;;;;;27.1;21.1;;;;;;;7.58;73.71289;93901.7;;;;
2022/04/23 04:19:14;;;;;;;27.1;21.1;;;;;;;7.58;73.71289;93901.7;;;;
2022/04/23 04:20:15;;;;;;;27.1;21.1;;;;;;;7.58;73.71289;93901.7;;;;
2022/04/23 04:21:16;;;;;;;27.1;21.1;;;;;;;7.58;73.71289;93901.7;;;;
2022/04/23 04:22:16;;;;;;;27.1;21.1;;;;;;;7.58;73.71289;93901.7;;;;
2022/04/23 04:23:17;;;;;;;27.1;21.1;;;;;;;7.58;73.71289;93901.7;;;;
2022/04/23 04:24:18;;;;;;;27.1;21.1;;;;;;;7.58;73.71289;93901.7;;;;
2022/04/23 04:25:18;;;;;;;27.1;21.1;;;;;;;7.58;73.71289;93901.7;;;;
2022/04/23 04:26:19;;;;;;;27.1;21.1;;;;;;;7.58;73.71289;93901.7;;;;
2022/04/23 04:27:19;;;;;;;27.1;21.1;;;;;;;7.58;73.71289;93901.7;;;;
2022/04/23 04:28:20;;;;;;;28.05;21.05;;;;;;;7.55;73.8457;93868.24;;;;
2022/04/23 04:29:21;;;;;;;28.05;21.05;;;;;;;7.55;73.8457;93868.24;;;;
2022/04/23 04:30:22;;;;;;;28.05;21.05;;;;;;;7.55;73.8457;93868.24;;;;
2022/04/23 04:31:55;;;;;;;28.05;21.05;;;;;;;7.55;73.8457;93868.24;;;;
2022/04/23 04:32:56;;;;;;;28.05;21.05;;;;;;;7.55;73.8457;93868.24;;;;
2022/04/23 04:33:56;;;;;;;28.05;21.05;;;;;;;7.55;73.8457;93868.24;;;;
2022/04/23 04:34:57;;;;;;;28.05;21.05;;;;;;;7.55;73.8457;93868.24;;;;
2022/04/23 04:35:57;;;;;;;28.05;21.05;;;;;;;7.55;73.8457;93868.24;;;;
2022/04/23 04:36:58;;;;;;;28.05;21.05;;;;;;;7.55;73.8457;93868.24;;;;
2022/04/23 04:38:03;;;;;;;28.05;21.05;;;;;;;7.55;73.8457;93868.24;;;;
2022/04/23 04:39:04;;;;;;;28.65;21.2;;;;;;;7.56;73.90039;93872.53;;;;
2022/04/23 04:40:05;;;;;;;28.65;21.2;;;;;;;7.56;73.90039;93872.53;;;;
2022/04/23 04:41:06;;;;;;;28.65;21.2;;;;;;;7.56;73.90039;93872.53;;;;
2022/04/23 04:42:07;;;;;;;28.65;21.2;;;;;;;7.56;73.90039;93872.53;;;;
2022/04/23 04:43:09;;;;;;;28.65;21.2;;;;;;;7.56;73.90039;93872.53;;;;
2022/04/23 04:44:10;;;;;;;28.65;21.2;;;;;;;7.56;73.90039;93872.53;;;;
2022/04/23 04:45:10;;;;;;;28.65;21.2;;;;;;;7.56;73.90039;93872.53;;;;
2022/04/23 04:46:11;;;;;;;28.65;21.2;;;;;;;7.56;73.90039;93872.53;;;;
2022/04/23 04:47:11;;;;;;;28.65;21.2;;;;;;;7.56;73.90039;93872.53;;;;
2022/04/23 04:48:12;;;;;;;28.65;21.2;;;;;;;7.56;73.90039;93872.53;;;;
2022/04/23 04:49:13;;;;;;;28.65;21.2;;;;;;;7.56;73.90039;93872.53;;;;
2022/04/23 04:50:14;;;;;;;28.75;21.45;;;;;;;7.63;73.97852;93869;;;;
2022/04/23 04:51:14;;;;;;;28.75;21.45;;;;;;;7.63;73.97852;93869;;;;
2022/04/23 04:52:15;;;;;;;28.75;21.45;;;;;;;7.63;73.97852;93869;;;;
2022/04/23 04:53:15;;;;;;;28.75;21.45;;;;;;;7.63;73.97852;93869;;;;
2022/04/23 04:54:17;;;;;;;28.75;21.45;;;;;;;7.63;73.97852;93869;;;;
2022/04/23 04:55:18;;;;;;;28.75;21.45;;;;;;;7.63;73.97852;93869;;;;
2022/04/23 04:56:19;;;;;;;28.75;21.45;;;;;;;7.63;73.97852;93869;;;;
2022/04/23 04:57:20;;;;;;;28.75;21.45;;;;;;;7.63;73.97852;93869;;;;
2022/04/23 04:58:20;;;;;;;28.75;21.45;;;;;;;7.63;73.97852;93869;;;;
2022/04/23 04:59:21;;;;;;;28.75;21.45;;;;;;;7.63;73.97852;93869;;;;
2022/04/23 05:00:22;;;;;;;26.8;19.95;;;;;;;7.65;73.84375;93869.56;;;;
2022/04/23 05:01:22;;;;;;;26.8;19.95;;;;;;;7.65;73.84375;93869.56;;;;
2022/04/23 05:02:22;;;;;;;26.8;19.95;;;;;;;7.65;73.84375;93869.56;;;;
2022/04/23 05:03:25;;;;;;;26.8;19.95;;;;;;;7.65;73.84375;93869.56;;;;
2022/04/23 05:04:26;;;;;;;26.8;19.95;;;;;;;7.65;73.84375;93869.56;;;;
2022/04/23 05:05:27;;;;;;;26.8;19.95;;;;;;;7.65;73.84375;93869.56;;;;
2022/04/23 05:06:27;;;;;;;26.8;19.95;;;;;;;7.65;73.84375;93869.56;;;;
2022/04/23 05:07:28;;;;;;;26.8;19.95;;;;;;;7.65;73.84375;93869.56;;;;
2022/04/23 05:08:28;;;;;;;26.8;19.95;;;;;;;7.65;73.84375;93869.56;;;;
2022/04/23 05:09:29;;;;;;;26.8;19.95;;;;;;;7.65;73.84375;93869.56;;;;
2022/04/23 05:10:29;;;;;;;26.8;19.95;;;;;;;7.65;73.84375;93869.56;;;;
2022/04/23 05:11:30;;;;;;;27.6;20.3;;;;;;;7.68;74.02734;93879;;;;
2022/04/23 05:12:30;;;;;;;27.6;20.3;;;;;;;7.68;74.02734;93879;;;;
2022/04/23 05:13:31;;;;;;;27.6;20.3;;;;;;;7.68;74.02734;93879;;;;
2022/04/23 05:14:32;;;;;;;27.6;20.3;;;;;;;7.68;74.02734;93879;;;;
2022/04/23 05:15:32;;;;;;;27.6;20.3;;;;;;;7.68;74.02734;93879;;;;
2022/04/23 05:16:32;;;;;;;27.6;20.3;;;;;;;7.68;74.02734;93879;;;;
2022/04/23 05:17:33;;;;;;;27.6;20.3;;;;;;;7.68;74.02734;93879;;;;
2022/04/23 05:18:37;;;;;;;27.6;20.3;;;;;;;7.68;74.02734;93879;;;;
2022/04/23 05:19:37;;;;;;;27.6;20.3;;;;;;;7.68;74.02734;93879;;;;
2022/04/23 05:20:38;;;;;;;27.6;20.3;;;;;;;7.68;74.02734;93879;;;;
2022/04/23 05:21:38;;;;;;;27.6;20.3;;;;;;;7.68;74.02734;93879;;;;
2022/04/23 05:22:39;;;;;;;28.2;20.55;;;;;;;7.74;74.28223;93888.31;;;;
2022/04/23 05:23:39;;;;;;;28.2;20.55;;;;;;;7.74;74.28223;93888.31;;;;
2022/04/23 05:24:40;;;;;;;28.2;20.55;;;;;;;7.74;74.28223;93888.31;;;;
2022/04/23 05:25:40;;;;;;;28.2;20.55;;;;;;;7.74;74.28223;93888.31;;;;
2022/04/23 05:26:41;;;;;;;28.2;20.55;;;;;;;7.74;74.28223;93888.31;;;;
2022/04/23 05:27:41;;;;;;;28.2;20.55;;;;;;;7.74;74.28223;93888.31;;;;
2022/04/23 05:28:42;;;;;;;28.2;20.55;;;;;;;7.74;74.28223;93888.31;;;;
2022/04/23 05:29:42;;;;;;;28.2;20.55;;;;;;;7.74;74.28223;93888.31;;;;
2022/04/23 05:30:44;;;;;;;28.2;20.55;;;;;;;7.74;74.28223;93888.31;;;;
2022/04/23 05:31:44;;;;;;;28.2;20.55;;;;;;;7.74;74.28223;93888.31;;;;
2022/04/23 05:32:45;;;;;;;25.75;18.5;;;;;;;7.78;74.49219;93880.85;;;;
2022/04/23 05:33:45;;;;;;;25.75;18.5;;;;;;;7.78;74.49219;93880.85;;;;
2022/04/23 05:34:46;;;;;;;25.75;18.5;;;;;;;7.78;74.49219;93880.85;;;;
2022/04/23 05:35:46;;;;;;;25.75;18.5;;;;;;;7.78;74.49219;93880.85;;;;
2022/04/23 05:36:47;;;;;;;25.75;18.5;;;;;;;7.78;74.49219;93880.85;;;;
2022/04/23 05:37:47;;;;;;;25.75;18.5;;;;;;;7.78;74.49219;93880.85;;;;
2022/04/23 05:38:48;;;;;;;25.75;18.5;;;;;;;7.78;74.49219;93880.85;;;;
2022/04/23 05:39:48;;;;;;;25.75;18.5;;;;;;;7.78;74.49219;93880.85;;;;
2022/04/23 05:40:49;;;;;;;25.75;18.5;;;;;;;7.78;74.49219;93880.85;;;;
2022/04/23 05:41:49;;;;;;;25.75;18.5;;;;;;;7.78;74.49219;93880.85;;;;
2022/04/23 05:42:50;;;;;;;25.75;18.5;;;;;;;7.78;74.49219;93880.85;;;;
2022/04/23 05:43:50;;;;;;;25.75;18.5;;;;;;;7.78;74.49219;93880.85;;;;
2022/04/23 05:44:51;;;;;;;25.75;18.5;;;;;;;7.78;74.49219;93880.85;;;;
2022/04/23 05:45:51;;;;;;;25.75;18.5;;;;;;;7.78;74.49219;93880.85;;;;